Time;durP1;ratioP1;P1;durP2;ratioP2;P2;SDS_P1;SDS_P2;PMS_P1;PMS_P2;Temp;Humidity;BMP_temperature;BMP_pressure;BME280_temperature;BME280_humidity;BME280_pressure;Samples;Min_cycle;Max_cycle;Signal;HPM_P1;HPM_P2
2023/07/25 00:01:10;;;;;;;11.57;2.95;;;14.20;99.90;;;;;;5099156;28;20040;-58
2023/07/25 00:03:36;;;;;;;13.00;2.90;;;14.20;99.90;;;;;;5097443;28;20625;-57
2023/07/25 00:06:03;;;;;;;9.30;2.70;;;14.20;99.90;;;;;;5099530;28;20040;-57
2023/07/25 00:08:29;;;;;;;9.63;2.97;;;14.20;99.90;;;;;;5097611;28;20044;-57
2023/07/25 00:10:55;;;;;;;13.88;2.90;;;14.20;99.90;;;;;;5099128;28;20051;-57
2023/07/25 00:13:20;;;;;;;10.88;2.72;;;14.20;99.90;;;;;;5098843;28;20039;-57
2023/07/25 00:15:46;;;;;;;9.85;2.75;;;14.20;99.90;;;;;;5097756;28;20076;-58
2023/07/25 00:18:12;;;;;;;10.32;3.35;;;14.10;99.90;;;;;;5101445;28;20033;-57
2023/07/25 00:20:37;;;;;;;9.70;2.97;;;14.10;99.90;;;;;;5099650;28;20052;-57
2023/07/25 00:23:03;;;;;;;8.88;2.95;;;14.10;99.90;;;;;;5101521;28;20059;-57
2023/07/25 00:25:29;;;;;;;10.50;2.63;;;14.10;99.90;;;;;;5100639;28;20040;-57
2023/07/25 00:27:54;;;;;;;9.18;2.60;;;14.10;99.90;;;;;;5103259;28;20496;-57
2023/07/25 00:30:20;;;;;;;13.18;2.95;;;14.10;99.90;;;;;;5101656;28;20104;-56
2023/07/25 00:32:46;;;;;;;11.68;2.80;;;14.00;99.90;;;;;;5100184;28;20048;-56
2023/07/25 00:35:12;;;;;;;7.32;2.33;;;14.00;99.90;;;;;;5101193;28;20028;-57
2023/07/25 00:37:37;;;;;;;8.15;2.80;;;14.00;99.90;;;;;;5100668;28;20101;-57
2023/07/25 00:40:03;;;;;;;8.07;2.67;;;14.00;99.90;;;;;;5102503;28;20119;-57
2023/07/25 00:42:29;;;;;;;10.27;2.85;;;14.00;99.90;;;;;;5099902;28;20054;-57
2023/07/25 00:44:54;;;;;;;12.23;3.45;;;13.90;99.90;;;;;;5101269;28;20064;-58
2023/07/25 00:47:22;;;;;;;10.77;2.83;;;13.90;99.90;;;;;;5101026;28;20093;-56
2023/07/25 00:49:49;;;;;;;14.00;2.78;;;13.90;99.90;;;;;;5101583;28;20097;-57
2023/07/25 00:52:16;;;;;;;15.18;3.05;;;13.90;99.90;;;;;;5102049;28;20162;-57
2023/07/25 00:54:47;;;;;;;11.02;2.67;;;13.90;99.90;;;;;;5100427;28;20779;-57
2023/07/25 00:57:14;;;;;;;13.32;2.95;;;13.90;99.90;;;;;;5102358;28;20461;-57
2023/07/25 00:59:40;;;;;;;11.20;3.20;;;13.80;99.90;;;;;;5099848;28;20079;-57
2023/07/25 01:02:06;;;;;;;12.00;2.83;;;13.80;99.90;;;;;;5100987;28;20040;-57
2023/07/25 01:04:32;;;;;;;11.52;2.95;;;13.80;99.90;;;;;;5100867;28;20036;-56
2023/07/25 01:06:59;;;;;;;9.18;3.10;;;13.80;99.90;;;;;;5101322;28;20044;-57
2023/07/25 01:09:43;;;;;;;7.50;2.78;;;13.70;99.90;;;;;;5101891;28;20040;-57
2023/07/25 01:12:09;;;;;;;7.60;2.95;;;13.70;99.90;;;;;;5098347;28;20044;-57
2023/07/25 01:14:36;;;;;;;11.15;3.35;;;13.60;99.90;;;;;;5100830;28;20055;-57
2023/07/25 01:17:20;;;;;;;12.48;3.20;;;13.60;99.90;;;;;;5099943;28;20052;-56
2023/07/25 01:19:46;;;;;;;8.15;2.50;;;13.60;99.90;;;;;;5101157;28;20048;-57
2023/07/25 01:22:13;;;;;;;7.40;2.80;;;13.60;99.90;;;;;;5099958;28;20052;-55
2023/07/25 01:24:47;;;;;;;10.10;3.08;;;13.60;99.90;;;;;;5099656;28;20043;-57
2023/07/25 01:27:14;;;;;;;11.40;3.40;;;13.60;99.90;;;;;;5101759;28;20039;-57
2023/07/25 01:29:40;;;;;;;12.35;3.20;;;13.60;99.90;;;;;;5099364;28;20085;-57
2023/07/25 01:32:07;;;;;;;11.10;3.55;;;13.50;99.90;;;;;;5101839;28;20055;-57
2023/07/25 01:34:33;;;;;;;13.32;3.72;;;13.50;99.90;;;;;;5098923;28;20048;-57
2023/07/25 01:36:58;;;;;;;11.15;3.50;;;13.50;99.90;;;;;;5100405;28;20058;-57
2023/07/25 01:39:24;;;;;;;12.18;3.90;;;13.40;99.90;;;;;;5101275;28;20401;-56
2023/07/25 01:41:49;;;;;;;11.50;3.38;;;13.40;99.90;;;;;;5099223;28;20036;-58
2023/07/25 01:44:15;;;;;;;12.48;3.67;;;13.30;99.90;;;;;;5101410;28;20036;-57
2023/07/25 01:46:41;;;;;;;11.00;3.13;;;13.30;99.90;;;;;;5099223;28;20598;-57
2023/07/25 01:49:10;;;;;;;11.13;3.45;;;13.70;99.90;;;;;;5101664;28;20070;-57
2023/07/25 01:51:35;;;;;;;12.50;3.75;;;13.30;99.90;;;;;;5098156;28;20086;-56
2023/07/25 01:54:01;;;;;;;11.73;3.70;;;13.20;99.90;;;;;;5100543;28;20036;-57
2023/07/25 01:56:27;;;;;;;9.32;3.60;;;13.10;99.90;;;;;;5099407;28;20040;-57
2023/07/25 01:58:52;;;;;;;8.18;3.40;;;13.20;99.90;;;;;;5097870;28;20047;-57
2023/07/25 02:01:18;;;;;;;10.93;3.63;;;13.20;99.90;;;;;;5100947;28;20056;-57
2023/07/25 02:03:44;;;;;;;14.02;3.40;;;13.10;99.90;;;;;;5080386;28;20491;-57
2023/07/25 02:06:09;;;;;;;10.50;3.42;;;13.10;99.90;;;;;;5099814;28;20048;-57
2023/07/25 02:08:35;;;;;;;9.23;3.70;;;13.10;99.90;;;;;;5099036;28;20046;-56
2023/07/25 02:11:01;;;;;;;12.98;3.60;;;13.10;99.90;;;;;;5098743;28;20048;-56
2023/07/25 02:13:27;;;;;;;7.88;3.67;;;13.00;99.90;;;;;;5100386;28;20040;-57
2023/07/25 02:15:52;;;;;;;10.88;3.15;;;13.10;99.90;;;;;;5097665;28;20051;-57
2023/07/25 02:18:18;;;;;;;10.63;3.15;;;13.00;99.90;;;;;;5100569;28;20046;-57
2023/07/25 02:20:44;;;;;;;8.10;3.67;;;13.00;99.90;;;;;;5097287;28;20094;-57
2023/07/25 02:23:10;;;;;;;10.00;3.90;;;13.00;99.90;;;;;;5100802;28;20515;-57
2023/07/25 02:25:35;;;;;;;12.77;3.50;;;13.00;99.90;;;;;;5080147;28;20048;-57
2023/07/25 02:28:01;;;;;;;13.25;3.42;;;13.00;99.90;;;;;;5100455;28;20048;-57
2023/07/25 02:30:27;;;;;;;9.68;3.17;;;13.00;99.90;;;;;;5098192;28;20051;-57
2023/07/25 02:32:52;;;;;;;13.70;3.50;;;13.00;99.90;;;;;;5098854;28;20116;-57
2023/07/25 02:35:18;;;;;;;10.82;3.03;;;13.10;99.90;;;;;;5100373;28;20040;-57
2023/07/25 02:37:44;;;;;;;13.27;3.70;;;13.00;99.90;;;;;;5098530;28;20090;-57
2023/07/25 02:40:09;;;;;;;12.32;3.20;;;13.10;99.90;;;;;;5098602;28;20035;-57
2023/07/25 02:42:35;;;;;;;7.50;3.35;;;13.10;99.90;;;;;;5097853;28;20059;-57
2023/07/25 02:45:02;;;;;;;9.50;3.22;;;13.10;99.90;;;;;;5100444;28;20095;-57
2023/07/25 02:47:27;;;;;;;13.07;3.25;;;13.20;99.90;;;;;;5099078;28;20074;-57
2023/07/25 02:49:53;;;;;;;11.15;3.10;;;13.20;99.90;;;;;;5097681;28;20044;-56
2023/07/25 02:52:19;;;;;;;14.80;3.70;;;13.20;99.90;;;;;;5098641;28;20039;-56
2023/07/25 02:54:45;;;;;;;9.95;3.38;;;13.20;99.90;;;;;;5096693;28;20055;-56
2023/07/25 02:57:11;;;;;;;11.15;3.35;;;13.20;99.90;;;;;;5100236;28;20051;-57
2023/07/25 02:59:36;;;;;;;12.52;3.40;;;13.20;99.90;;;;;;5098170;28;20050;-57
2023/07/25 03:02:02;;;;;;;7.32;3.10;;;13.30;99.90;;;;;;5100226;28;20514;-56
2023/07/25 03:04:29;;;;;;;10.80;3.40;;;13.30;99.90;;;;;;5098717;28;20443;-57
2023/07/25 03:06:55;;;;;;;8.25;2.83;;;13.40;99.90;;;;;;5099182;28;20044;-58
2023/07/25 03:09:21;;;;;;;11.98;3.03;;;13.40;99.90;;;;;;5099758;28;20036;-57
2023/07/25 03:11:46;;;;;;;9.93;3.20;;;13.40;99.90;;;;;;5096510;28;20112;-57
2023/07/25 03:14:12;;;;;;;13.15;3.10;;;13.40;99.90;;;;;;5098555;28;20043;-57
2023/07/25 03:16:37;;;;;;;9.07;2.95;;;13.50;99.90;;;;;;5097737;28;20082;-57
2023/07/25 03:19:03;;;;;;;10.60;3.20;;;13.50;99.90;;;;;;5099907;28;20533;-57
2023/07/25 03:21:29;;;;;;;8.40;3.00;;;13.50;99.90;;;;;;5098178;28;20048;-57
2023/07/25 03:23:54;;;;;;;12.20;2.88;;;13.50;99.90;;;;;;5099277;28;20069;-57
2023/07/25 03:26:20;;;;;;;11.30;3.17;;;13.60;99.90;;;;;;5098156;28;20055;-56
2023/07/25 03:28:46;;;;;;;14.20;3.30;;;13.60;99.90;;;;;;5097941;28;20044;-57
2023/07/25 03:31:12;;;;;;;10.13;3.10;;;13.60;99.90;;;;;;5099696;28;20040;-57
2023/07/25 03:33:38;;;;;;;13.75;2.88;;;13.20;99.90;;;;;;5097504;28;20071;-57
2023/07/25 03:36:04;;;;;;;13.70;3.10;;;13.70;99.90;;;;;;5098464;28;20040;-57
2023/07/25 03:38:30;;;;;;;9.45;2.63;;;13.70;99.90;;;;;;5097820;28;20048;-55
2023/07/25 03:40:55;;;;;;;11.18;3.25;;;13.70;99.90;;;;;;5097782;28;20101;-57
2023/07/25 03:43:21;;;;;;;9.18;3.22;;;13.70;99.90;;;;;;5097730;28;20121;-57
2023/07/25 03:45:47;;;;;;;10.40;3.10;;;13.70;99.90;;;;;;5098162;28;20105;-57
2023/07/25 03:48:13;;;;;;;10.40;3.08;;;13.80;99.90;;;;;;5098175;28;20036;-57
2023/07/25 03:50:39;;;;;;;8.88;3.10;;;13.80;99.90;;;;;;5097515;28;20067;-58
2023/07/25 03:53:05;;;;;;;6.55;3.13;;;13.80;99.90;;;;;;5103454;28;20066;-57
2023/07/25 03:55:31;;;;;;;10.02;3.50;;;13.80;99.90;;;;;;5101566;28;20104;-57
2023/07/25 03:57:56;;;;;;;10.60;3.20;;;13.80;99.90;;;;;;5103448;28;20476;-57
2023/07/25 04:00:22;;;;;;;11.80;3.30;;;13.80;99.90;;;;;;5102453;28;20100;-57
2023/07/25 04:02:48;;;;;;;11.98;3.58;;;13.80;99.90;;;;;;5101896;28;20096;-57
2023/07/25 04:05:14;;;;;;;12.65;3.30;;;13.80;99.90;;;;;;5101708;28;20032;-57
2023/07/25 04:07:40;;;;;;;9.00;2.70;;;13.90;99.90;;;;;;5101265;28;20035;-58
2023/07/25 04:10:06;;;;;;;11.55;3.17;;;13.90;99.90;;;;;;5101814;28;20044;-57
2023/07/25 04:12:32;;;;;;;14.00;3.05;;;13.90;99.90;;;;;;5100807;28;20044;-58
2023/07/25 04:14:58;;;;;;;8.27;3.05;;;13.90;99.90;;;;;;5103394;28;20036;-57
2023/07/25 04:17:24;;;;;;;9.25;3.05;;;13.90;99.90;;;;;;5101889;28;20036;-56
2023/07/25 04:19:49;;;;;;;9.30;3.05;;;13.90;99.90;;;;;;5100485;28;20466;-57
2023/07/25 04:22:15;;;;;;;10.02;3.03;;;13.90;99.90;;;;;;5102582;28;20054;-57
2023/07/25 04:24:41;;;;;;;9.52;3.00;;;14.00;99.90;;;;;;5099481;28;20127;-58
2023/07/25 04:27:06;;;;;;;7.40;3.22;;;13.90;99.90;;;;;;5101553;28;20047;-57
2023/07/25 04:29:32;;;;;;;14.63;3.22;;;14.00;99.90;;;;;;5099231;28;20096;-57
2023/07/25 04:31:58;;;;;;;12.43;3.40;;;14.00;99.90;;;;;;5101535;28;20511;-57
2023/07/25 04:34:24;;;;;;;13.13;3.58;;;14.00;99.90;;;;;;5101190;28;20535;-56
2023/07/25 04:36:49;;;;;;;8.30;2.80;;;14.00;99.90;;;;;;5101909;28;20126;-57
2023/07/25 04:39:15;;;;;;;9.43;3.08;;;14.00;99.90;;;;;;5102183;28;20074;-57
2023/07/25 04:41:41;;;;;;;11.85;2.90;;;14.10;99.90;;;;;;5100395;28;20044;-57
2023/07/25 04:44:07;;;;;;;11.43;3.10;;;14.10;99.90;;;;;;5102410;28;20511;-57
2023/07/25 04:46:32;;;;;;;10.40;3.22;;;14.10;99.90;;;;;;5100210;28;20056;-57
2023/07/25 04:48:58;;;;;;;12.55;3.28;;;14.20;99.90;;;;;;5101537;28;20040;-57
2023/07/25 04:51:24;;;;;;;10.90;2.88;;;14.20;99.90;;;;;;5100707;28;20515;-56
2023/07/25 04:53:50;;;;;;;9.00;3.15;;;14.20;99.90;;;;;;5102017;28;20117;-56
2023/07/25 04:56:15;;;;;;;11.02;3.38;;;14.20;99.90;;;;;;5101887;28;20075;-57
2023/07/25 04:58:41;;;;;;;11.50;3.10;;;14.20;99.90;;;;;;5100572;28;20050;-57
2023/07/25 05:01:08;;;;;;;15.18;3.42;;;14.20;99.90;;;;;;5101839;28;20040;-57
2023/07/25 05:03:33;;;;;;;10.85;3.50;;;14.20;99.90;;;;;;5099549;28;20122;-57
2023/07/25 05:05:59;;;;;;;8.95;3.45;;;14.20;99.90;;;;;;5102416;28;20073;-57
2023/07/25 05:08:25;;;;;;;15.38;3.15;;;14.20;99.90;;;;;;5100133;28;20044;-57
2023/07/25 05:10:52;;;;;;;10.60;3.50;;;14.20;99.90;;;;;;5083598;28;20040;-57
2023/07/25 05:13:18;;;;;;;8.70;3.00;;;14.20;99.90;;;;;;5099893;28;20043;-57
2023/07/25 05:15:44;;;;;;;8.88;3.05;;;14.10;99.90;;;;;;5100208;28;20040;-57
2023/07/25 05:18:09;;;;;;;9.48;3.13;;;14.10;99.90;;;;;;5100258;28;20494;-56
2023/07/25 05:20:35;;;;;;;9.48;3.13;;;14.10;99.90;;;;;;5099857;28;20050;-58
2023/07/25 05:23:01;;;;;;;12.80;2.78;;;14.00;99.90;;;;;;5100648;28;20507;-57
2023/07/25 05:25:26;;;;;;;9.40;3.00;;;14.10;99.90;;;;;;5098264;28;20086;-56
2023/07/25 05:27:52;;;;;;;10.13;2.80;;;14.10;99.90;;;;;;5101712;28;20096;-57
2023/07/25 05:30:18;;;;;;;15.35;3.53;;;14.10;99.90;;;;;;5099382;28;20130;-56
2023/07/25 05:32:44;;;;;;;19.52;3.30;;;14.10;99.90;;;;;;5100139;28;20182;-56
2023/07/25 05:35:09;;;;;;;9.80;3.00;;;14.20;99.90;;;;;;5101318;28;20040;-57
2023/07/25 05:37:39;;;;;;;8.25;2.83;;;14.30;99.90;;;;;;5099421;28;20115;-57
2023/07/25 05:40:05;;;;;;;14.82;2.90;;;14.40;99.90;;;;;;5101440;28;20032;-55
2023/07/25 05:42:32;;;;;;;15.30;3.10;;;14.60;99.90;;;;;;5098913;28;20079;-57
2023/07/25 05:44:59;;;;;;;12.52;2.78;;;14.70;99.90;;;;;;5101261;28;20099;-57
2023/07/25 05:47:26;;;;;;;13.18;2.30;;;14.80;99.90;;;;;;5100303;28;20048;-57
2023/07/25 05:49:52;;;;;;;14.65;2.95;;;14.80;99.90;;;;;;5100024;28;20066;-58
2023/07/25 05:52:17;;;;;;;7.43;2.42;;;14.90;99.90;;;;;;5101048;28;20143;-58
2023/07/25 05:54:46;;;;;;;16.45;3.10;;;14.90;99.90;;;;;;5081179;28;20043;-57
2023/07/25 05:57:12;;;;;;;7.47;2.65;;;14.90;99.90;;;;;;5101249;28;20036;-57
2023/07/25 05:59:40;;;;;;;11.55;2.75;;;14.90;99.90;;;;;;5099047;28;20391;-57
2023/07/25 06:02:07;;;;;;;10.93;2.30;;;15.00;99.90;;;;;;5101145;28;20259;-57
2023/07/25 06:04:32;;;;;;;16.80;2.80;;;14.90;99.90;;;;;;5081632;28;20055;-57
2023/07/25 06:06:58;;;;;;;9.40;2.58;;;14.90;99.90;;;;;;5099818;28;20051;-57
2023/07/25 06:09:24;;;;;;;11.88;2.30;;;14.90;99.90;;;;;;5100645;28;20040;-57
2023/07/25 06:11:50;;;;;;;13.20;2.75;;;14.90;99.90;;;;;;5098371;28;20040;-57
2023/07/25 06:14:15;;;;;;;13.88;2.45;;;14.90;99.90;;;;;;5098531;28;20048;-58
2023/07/25 06:16:41;;;;;;;13.48;2.20;;;14.90;99.90;;;;;;5098514;28;20048;-57
2023/07/25 06:19:06;;;;;;;8.93;2.10;;;15.00;99.90;;;;;;5100783;28;20494;-57
2023/07/25 06:21:32;;;;;;;12.30;2.47;;;15.00;99.90;;;;;;5099089;28;20040;-57
2023/07/25 06:23:58;;;;;;;7.43;1.98;;;15.00;99.90;;;;;;5099584;28;20125;-58
2023/07/25 06:26:24;;;;;;;13.20;2.45;;;15.10;99.90;;;;;;5100223;28;20080;-57
2023/07/25 06:28:51;;;;;;;10.90;2.17;;;15.10;99.90;;;;;;5098230;28;20032;-58
2023/07/25 06:31:17;;;;;;;10.35;2.10;;;15.20;99.90;;;;;;5100645;28;20052;-57
2023/07/25 06:33:42;;;;;;;8.10;2.10;;;15.20;99.90;;;;;;5098144;28;20059;-58
2023/07/25 06:36:08;;;;;;;12.98;2.05;;;15.20;99.90;;;;;;5099441;28;20039;-58
2023/07/25 06:38:34;;;;;;;7.13;2.20;;;15.30;99.90;;;;;;5098739;28;20042;-57
2023/07/25 06:40:59;;;;;;;9.40;2.20;;;15.40;99.90;;;;;;5099442;28;20046;-58
2023/07/25 06:43:25;;;;;;;13.48;2.28;;;15.40;99.90;;;;;;5098756;28;20081;-58
2023/07/25 06:45:51;;;;;;;8.60;1.90;;;15.40;99.90;;;;;;5097192;28;20096;-58
2023/07/25 06:48:17;;;;;;;11.90;2.33;;;15.50;99.90;;;;;;5100083;28;20101;-58
2023/07/25 06:50:43;;;;;;;8.20;2.08;;;15.50;99.90;;;;;;5098022;28;20119;-58
2023/07/25 06:53:09;;;;;;;11.57;2.15;;;15.60;99.90;;;;;;5100437;28;20044;-58
2023/07/25 06:55:36;;;;;;;9.25;1.50;;;16.00;99.90;;;;;;5096870;28;20052;-58
2023/07/25 06:58:02;;;;;;;14.10;1.80;;;16.40;99.90;;;;;;5099666;28;20075;-57
2023/07/25 07:00:28;;;;;;;7.72;1.83;;;16.60;99.90;;;;;;5098341;28;20317;-57
2023/07/25 07:02:54;;;;;;;6.25;1.70;;;16.70;99.90;;;;;;5098200;28;20052;-58
2023/07/25 07:05:20;;;;;;;8.52;1.70;;;16.90;99.90;;;;;;5100032;28;20051;-58
2023/07/25 07:07:46;;;;;;;14.60;1.98;;;17.00;99.90;;;;;;5097880;28;20036;-58
2023/07/25 07:10:11;;;;;;;8.13;1.30;;;17.20;99.90;;;;;;5098591;28;20126;-58
2023/07/25 07:12:45;;;;;;;5.32;1.40;;;17.40;99.90;;;;;;5097658;28;20036;-57
2023/07/25 07:15:14;;;;;;;9.38;1.55;;;17.50;99.90;;;;;;5098124;28;20063;-58
2023/07/25 07:17:41;;;;;;;6.65;1.75;;;17.60;99.90;;;;;;5099652;28;20067;-57
2023/07/25 07:20:08;;;;;;;6.05;1.38;;;17.60;99.90;;;;;;5097955;28;20415;-58
2023/07/25 07:22:34;;;;;;;5.47;1.50;;;17.70;99.90;;;;;;5099750;28;20047;-58
2023/07/25 07:24:59;;;;;;;4.65;1.30;;;17.80;99.90;;;;;;5096283;28;20040;-58
2023/07/25 07:27:25;;;;;;;4.60;0.93;;;18.10;99.90;;;;;;5104241;28;20035;-58
2023/07/25 07:29:52;;;;;;;7.47;1.25;;;18.40;99.90;;;;;;5100873;28;20039;-58
2023/07/25 07:32:18;;;;;;;4.88;1.27;;;18.70;99.90;;;;;;5103376;28;20586;-58
2023/07/25 07:34:44;;;;;;;4.25;1.23;;;19.00;99.90;;;;;;5085095;28;20084;-58
2023/07/25 07:37:10;;;;;;;8.38;1.25;;;19.20;99.90;;;;;;5102125;28;20040;-58
2023/07/25 07:39:38;;;;;;;4.07;1.05;;;19.30;99.90;;;;;;5103436;28;20040;-57
2023/07/25 07:42:04;;;;;;;7.47;1.40;;;19.40;99.90;;;;;;5101321;28;20048;-58
2023/07/25 07:44:30;;;;;;;6.90;1.33;;;19.30;99.90;;;;;;5085487;28;20047;-59
2023/07/25 07:46:55;;;;;;;5.05;1.17;;;19.20;99.90;;;;;;5101864;28;20036;-57
2023/07/25 07:49:21;;;;;;;4.45;1.10;;;19.10;99.90;;;;;;5103443;28;20043;-58
2023/07/25 07:51:47;;;;;;;4.97;1.48;;;19.10;99.90;;;;;;5102918;28;20032;-57
2023/07/25 07:54:12;;;;;;;4.10;0.90;;;19.20;99.90;;;;;;5101867;28;20557;-58
2023/07/25 07:56:38;;;;;;;6.85;1.02;;;19.40;99.90;;;;;;5103340;28;20048;-59
2023/07/25 07:59:06;;;;;;;5.53;1.30;;;19.50;99.90;;;;;;5101525;28;20040;-58
2023/07/25 08:01:32;;;;;;;7.35;1.40;;;19.50;99.90;;;;;;5103393;28;20652;-58
2023/07/25 08:03:58;;;;;;;4.03;1.08;;;19.50;99.90;;;;;;5101195;28;20058;-57
2023/07/25 08:06:23;;;;;;;2.20;0.75;;;19.60;99.90;;;;;;5102117;28;20050;-58
2023/07/25 08:08:49;;;;;;;4.10;1.00;;;19.60;99.90;;;;;;5102090;28;20063;-58
2023/07/25 08:11:14;;;;;;;4.85;1.50;;;19.60;99.90;;;;;;5101595;28;20116;-58
2023/07/25 08:13:40;;;;;;;5.03;1.05;;;19.50;99.90;;;;;;5101570;28;20036;-58
2023/07/25 08:16:06;;;;;;;4.40;1.10;;;19.40;99.90;;;;;;5101014;28;20048;-59
2023/07/25 08:18:31;;;;;;;3.80;1.10;;;19.40;99.90;;;;;;5103217;28;20125;-58
2023/07/25 08:20:59;;;;;;;5.30;1.20;;;19.30;99.90;;;;;;5100675;28;20036;-58
2023/07/25 08:23:25;;;;;;;4.45;1.20;;;19.20;99.40;;;;;;5101793;28;20047;-58
2023/07/25 08:25:51;;;;;;;3.95;1.02;;;19.10;99.20;;;;;;5101800;28;20036;-58
2023/07/25 08:28:17;;;;;;;4.68;1.05;;;19.20;99.50;;;;;;5101734;28;20034;-58
2023/07/25 08:30:43;;;;;;;4.00;1.30;;;19.30;99.60;;;;;;5102589;28;20395;-58
2023/07/25 08:33:10;;;;;;;5.05;1.08;;;19.30;99.10;;;;;;5100487;28;20048;-58
2023/07/25 08:35:36;;;;;;;3.63;1.10;;;19.40;98.00;;;;;;5102728;28;20044;-58
2023/07/25 08:38:02;;;;;;;3.42;0.90;;;19.50;97.20;;;;;;5099338;28;20085;-58
2023/07/25 08:40:27;;;;;;;6.78;1.20;;;19.60;97.40;;;;;;5101559;28;20101;-58
2023/07/25 08:43:01;;;;;;;6.47;0.98;;;19.60;96.20;;;;;;5100739;28;20052;-57
2023/07/25 08:45:27;;;;;;;5.43;1.25;;;19.70;96.60;;;;;;5101179;28;20060;-58
2023/07/25 08:47:55;;;;;;;3.17;1.20;;;19.80;96.90;;;;;;5102427;28;20051;-58
2023/07/25 08:50:22;;;;;;;5.80;1.25;;;19.90;97.10;;;;;;5099008;28;20063;-58
2023/07/25 08:52:52;;;;;;;3.33;0.90;;;19.80;96.80;;;;;;5102628;28;20040;-58
2023/07/25 08:55:19;;;;;;;4.10;0.95;;;19.30;95.90;;;;;;5100064;28;20082;-58
2023/07/25 08:57:46;;;;;;;4.78;1.25;;;19.50;96.50;;;;;;5102269;28;20070;-58
2023/07/25 09:00:13;;;;;;;4.07;0.80;;;19.30;96.70;;;;;;5101282;28;20048;-57
2023/07/25 09:02:39;;;;;;;3.72;0.90;;;19.30;96.70;;;;;;5100817;28;20067;-58
2023/07/25 09:05:05;;;;;;;3.70;0.90;;;19.30;96.50;;;;;;5101822;28;20048;-58
2023/07/25 09:07:31;;;;;;;2.63;0.93;;;19.40;96.50;;;;;;5100158;28;20044;-58
2023/07/25 09:09:58;;;;;;;4.88;0.90;;;19.40;96.30;;;;;;5100627;28;20043;-58
2023/07/25 09:12:25;;;;;;;3.67;1.02;;;19.60;95.90;;;;;;5099640;28;20068;-58
2023/07/25 09:14:51;;;;;;;2.85;0.88;;;19.80;95.50;;;;;;5102202;28;20055;-58
2023/07/25 09:17:17;;;;;;;5.25;1.20;;;19.90;94.80;;;;;;5100645;28;20043;-57
2023/07/25 09:19:43;;;;;;;4.68;0.90;;;19.90;95.50;;;;;;5100840;28;20051;-58
2023/07/25 09:22:29;;;;;;;4.82;1.05;;;19.90;96.00;;;;;;5101495;28;20040;-58
2023/07/25 09:24:56;;;;;;;;;;;20.00;95.50;;;;;;5100180;28;20089;-58
2023/07/25 09:27:21;;;;;;;5.68;1.10;;;20.10;96.30;;;;;;5134980;27;20245;-58
2023/07/25 09:29:51;;;;;;;7.53;1.08;;;20.00;96.10;;;;;;5098287;28;20044;-58
2023/07/25 09:32:19;;;;;;;2.80;0.93;;;19.90;96.20;;;;;;5100877;28;20551;-58
2023/07/25 09:34:46;;;;;;;4.10;0.98;;;19.80;96.50;;;;;;5100920;28;20052;-57
2023/07/25 09:37:16;;;;;;;4.68;0.93;;;19.80;96.70;;;;;;5099713;28;20032;-58
2023/07/25 09:39:42;;;;;;;4.53;1.20;;;19.90;96.60;;;;;;5101405;28;20496;-58
2023/07/25 09:42:08;;;;;;;6.13;1.20;;;20.00;96.50;;;;;;5098943;28;20044;-59
2023/07/25 09:44:33;;;;;;;3.88;1.23;;;20.10;96.20;;;;;;5100198;28;20153;-58
2023/07/25 09:46:59;;;;;;;4.95;1.15;;;20.10;96.10;;;;;;5099595;28;20044;-58
2023/07/25 09:49:25;;;;;;;5.63;1.33;;;20.10;96.00;;;;;;5100930;28;20074;-58
2023/07/25 09:51:59;;;;;;;6.00;1.30;;;20.10;95.70;;;;;;5101065;28;20047;-58
2023/07/25 09:54:25;;;;;;;5.13;1.13;;;19.90;95.60;;;;;;5098040;28;20073;-58
2023/07/25 09:56:51;;;;;;;5.10;1.20;;;19.80;95.70;;;;;;5099702;28;20048;-57
2023/07/25 09:59:17;;;;;;;5.28;1.08;;;19.80;95.60;;;;;;5098832;28;20120;-58
2023/07/25 10:01:43;;;;;;;4.00;1.13;;;19.60;95.90;;;;;;5101285;28;20039;-58
2023/07/25 10:04:10;;;;;;;2.92;1.00;;;19.60;95.50;;;;;;5099135;28;20032;-57
2023/07/25 10:06:36;;;;;;;6.53;1.20;;;19.40;95.70;;;;;;5100638;28;20409;-58
2023/07/25 10:09:03;;;;;;;4.47;1.15;;;19.30;96.00;;;;;;5100828;28;20039;-57
2023/07/25 10:11:30;;;;;;;7.07;1.30;;;19.10;95.90;;;;;;5097226;28;20048;-58
2023/07/25 10:13:56;;;;;;;4.80;1.02;;;19.00;96.20;;;;;;5100589;28;20245;-57
2023/07/25 10:16:22;;;;;;;5.85;1.27;;;19.00;96.20;;;;;;5098319;28;20609;-58
2023/07/25 10:18:57;;;;;;;4.15;1.05;;;19.00;96.10;;;;;;5099664;28;20036;-57
2023/07/25 10:21:27;;;;;;;7.15;1.15;;;19.10;96.10;;;;;;5099068;28;20044;-57
2023/07/25 10:23:59;;;;;;;5.07;0.88;;;19.10;97.00;;;;;;5098312;28;20052;-58
2023/07/25 10:26:26;;;;;;;6.53;1.17;;;19.20;96.90;;;;;;5100460;28;20040;-58
2023/07/25 10:28:52;;;;;;;4.95;1.10;;;19.30;96.30;;;;;;5098439;28;20051;-58
2023/07/25 10:31:33;;;;;;;3.00;0.98;;;19.30;96.20;;;;;;5099244;28;20051;-58
2023/07/25 10:33:59;;;;;;;4.32;0.80;;;19.40;95.90;;;;;;5097013;28;20044;-57
2023/07/25 10:36:25;;;;;;;5.68;1.10;;;19.40;95.80;;;;;;5099107;28;20051;-59
2023/07/25 10:39:05;;;;;;;6.20;0.90;;;19.40;94.50;;;;;;5099517;28;20044;-57
2023/07/25 10:41:31;;;;;;;2.78;0.90;;;19.20;94.10;;;;;;5098240;28;20123;-57
2023/07/25 10:43:59;;;;;;;5.63;1.00;;;19.20;94.40;;;;;;5098942;28;20423;-58
2023/07/25 10:46:30;;;;;;;8.50;1.30;;;19.20;95.80;;;;;;5098176;28;20520;-58
2023/07/25 10:49:00;;;;;;;4.50;1.42;;;19.30;96.70;;;;;;5100566;28;20047;-57
2023/07/25 10:51:54;;;;;;;5.47;1.33;;;19.30;96.80;;;;;;5098965;28;20139;-57
2023/07/25 10:54:27;;;;;;;6.97;1.30;;;19.30;96.70;;;;;;5096857;28;20074;-58
2023/07/25 10:57:14;;;;;;;4.15;0.85;;;19.30;97.00;;;;;;5100156;28;20043;-58
2023/07/25 10:59:57;;;;;;;5.75;1.20;;;19.30;96.30;;;;;;5097798;28;20101;-58
2023/07/25 11:02:31;;;;;;;6.53;1.27;;;19.30;96.90;;;;;;5097888;28;20051;-58
2023/07/25 11:05:12;;;;;;;5.00;0.90;;;19.30;95.80;;;;;;5099889;28;20063;-58
2023/07/25 11:07:47;;;;;;;5.40;1.27;;;19.30;95.80;;;;;;5098151;28;20082;-58
2023/07/25 11:10:25;;;;;;;5.97;1.10;;;19.30;94.70;;;;;;5100279;28;20071;-58
2023/07/25 11:12:56;;;;;;;3.03;0.90;;;19.20;95.00;;;;;;5098479;28;20040;-57
2023/07/25 11:15:22;;;;;;;2.97;1.00;;;19.20;94.60;;;;;;5098911;28;20040;-58
2023/07/25 11:17:48;;;;;;;7.80;1.17;;;19.20;95.60;;;;;;5099685;28;20050;-58
2023/07/25 11:20:21;;;;;;;4.05;0.90;;;19.20;95.40;;;;;;5097864;28;20039;-57
2023/07/25 11:22:51;;;;;;;2.72;0.80;;;19.30;95.30;;;;;;5098766;28;20074;-58
2023/07/25 11:25:18;;;;;;;2.15;0.80;;;19.30;95.00;;;;;;5097821;28;20040;-58
2023/07/25 11:27:45;;;;;;;3.15;1.25;;;19.20;94.70;;;;;;5099913;28;20032;-58
2023/07/25 11:30:16;;;;;;;4.75;0.90;;;19.10;94.50;;;;;;5098784;28;20040;-57
2023/07/25 11:32:52;;;;;;;4.43;1.02;;;19.10;95.10;;;;;;5097959;28;20115;-58
2023/07/25 11:35:19;;;;;;;1.98;0.73;;;19.10;95.10;;;;;;5099781;28;20125;-57
2023/07/25 11:37:46;;;;;;;3.17;0.90;;;19.20;95.30;;;;;;5096488;28;20080;-58
2023/07/25 11:40:20;;;;;;;5.20;1.10;;;19.30;94.70;;;;;;5098501;28;20036;-59
2023/07/25 11:42:48;;;;;;;2.47;0.80;;;19.30;94.70;;;;;;5097940;28;20048;-58
2023/07/25 11:45:16;;;;;;;5.53;1.00;;;19.30;94.60;;;;;;5098911;28;20104;-58
2023/07/25 11:47:43;;;;;;;4.50;1.20;;;19.40;94.80;;;;;;5099302;28;20048;-58
2023/07/25 11:50:10;;;;;;;4.32;1.00;;;19.50;94.70;;;;;;5096251;28;20055;-59
2023/07/25 11:52:43;;;;;;;5.32;1.20;;;19.50;95.10;;;;;;5099682;28;20108;-58
2023/07/25 11:55:10;;;;;;;6.03;1.17;;;19.50;95.40;;;;;;5097213;28;20048;-59
2023/07/25 11:57:37;;;;;;;4.63;1.10;;;19.50;95.30;;;;;;5099968;28;20051;-58
2023/07/25 12:00:06;;;;;;;4.57;1.30;;;19.50;95.50;;;;;;5098204;28;20057;-57
2023/07/25 12:02:39;;;;;;;4.85;1.10;;;19.50;95.50;;;;;;5098334;28;20118;-59
2023/07/25 12:05:05;;;;;;;6.25;1.20;;;19.50;95.60;;;;;;5099353;28;20043;-59
2023/07/25 12:07:56;;;;;;;5.63;1.25;;;19.60;96.20;;;;;;5097616;28;20032;-59
2023/07/25 12:10:32;;;;;;;3.22;0.95;;;19.60;96.60;;;;;;5099764;28;20044;-58
2023/07/25 12:13:00;;;;;;;14.43;1.67;;;19.60;96.10;;;;;;5098857;28;20091;-57
2023/07/25 12:15:43;;;;;;;4.00;1.27;;;19.70;96.20;;;;;;5101870;28;20074;-57
2023/07/25 12:18:31;;;;;;;5.35;1.13;;;19.70;96.20;;;;;;5103224;28;20040;-58
2023/07/25 12:20:59;;;;;;;5.80;1.35;;;19.70;95.80;;;;;;5100861;28;20051;-58
2023/07/25 12:23:29;;;;;;;3.20;1.02;;;19.80;96.10;;;;;;5101640;28;20044;-58
2023/07/25 12:25:56;;;;;;;6.78;1.08;;;19.90;96.40;;;;;;5102066;28;20049;-58
2023/07/25 12:28:23;;;;;;;3.80;1.00;;;20.10;96.10;;;;;;5101509;28;20048;-58
2023/07/25 12:30:49;;;;;;;5.10;0.90;;;20.00;95.60;;;;;;5102452;28;20040;-58
2023/07/25 12:33:15;;;;;;;6.82;1.17;;;20.00;96.00;;;;;;5099362;28;20064;-58
2023/07/25 12:35:41;;;;;;;5.47;1.00;;;20.00;96.00;;;;;;5101737;28;20060;-58
2023/07/25 12:38:07;;;;;;;4.75;1.00;;;19.80;96.40;;;;;;5100639;28;20242;-58
2023/07/25 12:40:32;;;;;;;4.95;1.40;;;19.80;96.50;;;;;;5102554;28;20036;-58
2023/07/25 12:42:58;;;;;;;3.45;1.10;;;19.80;96.50;;;;;;5101371;28;20040;-58